sensor_id;sensor_type;location;lat;lon;timestamp;P1;durP1;ratioP1;P2;durP2;ratioP2
16385;SDS011;8302;51.154;4.456;2024-01-30T00:00:39;1.77;;;1.52;;
16385;SDS011;8302;51.154;4.456;2024-01-30T00:03:06;1.63;;;1.30;;
16385;SDS011;8302;51.154;4.456;2024-01-30T00:05:34;2.03;;;1.67;;
16385;SDS011;8302;51.154;4.456;2024-01-30T00:08:04;2.13;;;1.73;;
16385;SDS011;8302;51.154;4.456;2024-01-30T00:10:32;2.15;;;1.70;;
16385;SDS011;8302;51.154;4.456;2024-01-30T00:12:59;2.50;;;1.77;;
16385;SDS011;8302;51.154;4.456;2024-01-30T00:15:27;4.60;;;2.25;;
16385;SDS011;8302;51.154;4.456;2024-01-30T00:17:55;2.72;;;1.63;;
16385;SDS011;8302;51.154;4.456;2024-01-30T00:20:23;2.42;;;1.58;;
16385;SDS011;8302;51.154;4.456;2024-01-30T00:22:51;2.33;;;1.50;;
16385;SDS011;8302;51.154;4.456;2024-01-30T00:25:20;4.75;;;2.40;;
16385;SDS011;8302;51.154;4.456;2024-01-30T00:27:48;1.90;;;1.50;;
16385;SDS011;8302;51.154;4.456;2024-01-30T00:30:16;2.97;;;1.90;;
16385;SDS011;8302;51.154;4.456;2024-01-30T00:32:43;2.45;;;1.85;;
16385;SDS011;8302;51.154;4.456;2024-01-30T00:35:12;1.92;;;1.40;;
16385;SDS011;8302;51.154;4.456;2024-01-30T00:37:39;3.35;;;1.67;;
16385;SDS011;8302;51.154;4.456;2024-01-30T00:40:08;3.03;;;1.67;;
16385;SDS011;8302;51.154;4.456;2024-01-30T00:42:38;2.97;;;1.67;;
16385;SDS011;8302;51.154;4.456;2024-01-30T00:45:06;1.77;;;1.45;;
16385;SDS011;8302;51.154;4.456;2024-01-30T00:47:34;1.85;;;1.17;;
16385;SDS011;8302;51.154;4.456;2024-01-30T00:50:01;3.58;;;1.40;;
16385;SDS011;8302;51.154;4.456;2024-01-30T00:52:29;2.58;;;1.50;;
16385;SDS011;8302;51.154;4.456;2024-01-30T00:54:57;3.65;;;1.88;;
16385;SDS011;8302;51.154;4.456;2024-01-30T00:57:25;3.15;;;1.83;;
16385;SDS011;8302;51.154;4.456;2024-01-30T00:59:54;5.10;;;1.08;;
16385;SDS011;8302;51.154;4.456;2024-01-30T01:02:22;1.73;;;1.40;;
16385;SDS011;8302;51.154;4.456;2024-01-30T01:04:50;2.63;;;1.33;;
16385;SDS011;8302;51.154;4.456;2024-01-30T01:07:17;2.13;;;1.55;;
16385;SDS011;8302;51.154;4.456;2024-01-30T01:09:45;1.63;;;1.48;;
16385;SDS011;8302;51.154;4.456;2024-01-30T01:12:14;2.58;;;1.40;;
16385;SDS011;8302;51.154;4.456;2024-01-30T01:14:42;2.72;;;1.95;;
16385;SDS011;8302;51.154;4.456;2024-01-30T01:17:11;1.73;;;1.35;;
16385;SDS011;8302;51.154;4.456;2024-01-30T01:19:39;2.33;;;1.10;;
16385;SDS011;8302;51.154;4.456;2024-01-30T01:22:07;2.40;;;1.75;;
16385;SDS011;8302;51.154;4.456;2024-01-30T01:24:35;2.42;;;1.75;;
16385;SDS011;8302;51.154;4.456;2024-01-30T01:27:03;2.78;;;1.48;;
16385;SDS011;8302;51.154;4.456;2024-01-30T01:29:32;2.85;;;1.63;;
16385;SDS011;8302;51.154;4.456;2024-01-30T01:32:00;3.20;;;1.65;;
16385;SDS011;8302;51.154;4.456;2024-01-30T01:34:29;2.00;;;1.33;;
16385;SDS011;8302;51.154;4.456;2024-01-30T01:36:56;1.92;;;1.17;;
16385;SDS011;8302;51.154;4.456;2024-01-30T01:39:24;2.55;;;1.20;;
16385;SDS011;8302;51.154;4.456;2024-01-30T01:41:52;2.70;;;1.85;;
16385;SDS011;8302;51.154;4.456;2024-01-30T01:44:20;1.90;;;1.50;;
16385;SDS011;8302;51.154;4.456;2024-01-30T01:46:47;1.20;;;1.10;;
16385;SDS011;8302;51.154;4.456;2024-01-30T01:49:15;3.25;;;1.67;;
16385;SDS011;8302;51.154;4.456;2024-01-30T01:51:45;2.47;;;2.08;;
16385;SDS011;8302;51.154;4.456;2024-01-30T01:54:14;3.28;;;1.80;;
16385;SDS011;8302;51.154;4.456;2024-01-30T01:56:41;1.30;;;1.20;;
16385;SDS011;8302;51.154;4.456;2024-01-30T01:59:09;2.30;;;1.75;;
16385;SDS011;8302;51.154;4.456;2024-01-30T02:01:37;1.73;;;1.10;;
16385;SDS011;8302;51.154;4.456;2024-01-30T02:04:07;2.55;;;1.83;;
16385;SDS011;8302;51.154;4.456;2024-01-30T02:06:35;3.78;;;1.75;;
16385;SDS011;8302;51.154;4.456;2024-01-30T02:09:04;1.77;;;1.48;;
16385;SDS011;8302;51.154;4.456;2024-01-30T02:11:32;3.53;;;1.75;;
16385;SDS011;8302;51.154;4.456;2024-01-30T02:14:02;4.38;;;1.90;;
16385;SDS011;8302;51.154;4.456;2024-01-30T02:16:29;3.03;;;1.95;;
16385;SDS011;8302;51.154;4.456;2024-01-30T02:18:57;2.13;;;1.45;;
16385;SDS011;8302;51.154;4.456;2024-01-30T02:21:26;2.30;;;1.25;;
16385;SDS011;8302;51.154;4.456;2024-01-30T02:26:56;1.85;;;1.10;;
16385;SDS011;8302;51.154;4.456;2024-01-30T02:29:24;3.58;;;1.70;;
16385;SDS011;8302;51.154;4.456;2024-01-30T02:31:52;1.95;;;1.65;;
16385;SDS011;8302;51.154;4.456;2024-01-30T02:34:19;1.30;;;1.20;;
16385;SDS011;8302;51.154;4.456;2024-01-30T02:36:49;2.17;;;1.35;;
16385;SDS011;8302;51.154;4.456;2024-01-30T02:39:16;2.35;;;1.58;;
16385;SDS011;8302;51.154;4.456;2024-01-30T02:41:44;1.70;;;1.20;;
16385;SDS011;8302;51.154;4.456;2024-01-30T02:44:12;1.35;;;1.25;;
16385;SDS011;8302;51.154;4.456;2024-01-30T02:46:40;3.58;;;2.05;;
16385;SDS011;8302;51.154;4.456;2024-01-30T02:49:07;3.88;;;1.58;;
16385;SDS011;8302;51.154;4.456;2024-01-30T02:51:35;2.88;;;1.52;;
16385;SDS011;8302;51.154;4.456;2024-01-30T02:54:04;2.22;;;1.50;;
16385;SDS011;8302;51.154;4.456;2024-01-30T02:56:32;2.38;;;1.63;;
16385;SDS011;8302;51.154;4.456;2024-01-30T02:59:00;1.33;;;1.20;;
16385;SDS011;8302;51.154;4.456;2024-01-30T03:01:26;4.68;;;1.40;;
16385;SDS011;8302;51.154;4.456;2024-01-30T03:03:54;4.03;;;1.52;;
16385;SDS011;8302;51.154;4.456;2024-01-30T03:06:22;4.15;;;1.52;;
16385;SDS011;8302;51.154;4.456;2024-01-30T03:08:50;2.15;;;1.23;;
16385;SDS011;8302;51.154;4.456;2024-01-30T03:11:19;1.08;;;0.82;;
16385;SDS011;8302;51.154;4.456;2024-01-30T03:13:47;2.13;;;1.38;;
16385;SDS011;8302;51.154;4.456;2024-01-30T03:16:15;2.22;;;1.40;;
16385;SDS011;8302;51.154;4.456;2024-01-30T03:18:43;2.35;;;1.55;;
16385;SDS011;8302;51.154;4.456;2024-01-30T03:21:10;3.92;;;1.83;;
16385;SDS011;8302;51.154;4.456;2024-01-30T03:23:38;2.40;;;1.45;;
16385;SDS011;8302;51.154;4.456;2024-01-30T03:26:06;3.60;;;1.38;;
16385;SDS011;8302;51.154;4.456;2024-01-30T03:28:36;2.45;;;1.35;;
16385;SDS011;8302;51.154;4.456;2024-01-30T03:31:04;1.83;;;1.30;;
16385;SDS011;8302;51.154;4.456;2024-01-30T03:33:32;1.80;;;1.30;;
16385;SDS011;8302;51.154;4.456;2024-01-30T03:36:02;1.25;;;1.02;;
16385;SDS011;8302;51.154;4.456;2024-01-30T03:38:30;1.38;;;1.27;;
16385;SDS011;8302;51.154;4.456;2024-01-30T03:40:59;2.95;;;1.55;;
16385;SDS011;8302;51.154;4.456;2024-01-30T03:43:26;2.03;;;1.65;;
16385;SDS011;8302;51.154;4.456;2024-01-30T03:45:55;4.13;;;1.42;;
16385;SDS011;8302;51.154;4.456;2024-01-30T03:48:23;1.80;;;1.30;;
16385;SDS011;8302;51.154;4.456;2024-01-30T03:50:52;1.40;;;1.30;;
16385;SDS011;8302;51.154;4.456;2024-01-30T03:53:20;2.55;;;2.03;;
16385;SDS011;8302;51.154;4.456;2024-01-30T03:55:47;3.85;;;1.75;;
16385;SDS011;8302;51.154;4.456;2024-01-30T03:58:15;1.92;;;1.48;;
16385;SDS011;8302;51.154;4.456;2024-01-30T04:00:43;2.67;;;1.27;;
16385;SDS011;8302;51.154;4.456;2024-01-30T04:03:13;3.13;;;1.42;;
16385;SDS011;8302;51.154;4.456;2024-01-30T04:05:41;3.05;;;1.48;;
16385;SDS011;8302;51.154;4.456;2024-01-30T04:08:09;2.15;;;1.50;;
16385;SDS011;8302;51.154;4.456;2024-01-30T04:10:37;2.45;;;1.58;;
16385;SDS011;8302;51.154;4.456;2024-01-30T04:13:05;1.88;;;1.50;;
16385;SDS011;8302;51.154;4.456;2024-01-30T04:15:37;2.63;;;1.40;;
16385;SDS011;8302;51.154;4.456;2024-01-30T04:18:05;2.67;;;1.65;;
16385;SDS011;8302;51.154;4.456;2024-01-30T04:20:34;1.73;;;1.33;;
16385;SDS011;8302;51.154;4.456;2024-01-30T04:23:02;1.83;;;1.65;;
16385;SDS011;8302;51.154;4.456;2024-01-30T04:25:30;2.92;;;1.17;;
16385;SDS011;8302;51.154;4.456;2024-01-30T04:27:58;3.53;;;1.77;;
16385;SDS011;8302;51.154;4.456;2024-01-30T04:30:26;1.70;;;1.45;;
16385;SDS011;8302;51.154;4.456;2024-01-30T04:32:53;1.25;;;1.10;;
16385;SDS011;8302;51.154;4.456;2024-01-30T04:35:21;2.80;;;1.58;;
16385;SDS011;8302;51.154;4.456;2024-01-30T04:37:53;5.50;;;2.15;;
16385;SDS011;8302;51.154;4.456;2024-01-30T04:40:21;3.10;;;1.67;;
16385;SDS011;8302;51.154;4.456;2024-01-30T04:42:48;2.45;;;1.42;;
16385;SDS011;8302;51.154;4.456;2024-01-30T04:45:16;2.95;;;1.80;;
16385;SDS011;8302;51.154;4.456;2024-01-30T04:47:44;2.45;;;1.63;;
16385;SDS011;8302;51.154;4.456;2024-01-30T04:50:13;4.10;;;1.98;;
16385;SDS011;8302;51.154;4.456;2024-01-30T04:52:41;2.92;;;1.80;;
16385;SDS011;8302;51.154;4.456;2024-01-30T04:55:10;3.47;;;1.95;;
16385;SDS011;8302;51.154;4.456;2024-01-30T04:57:37;4.25;;;1.70;;
16385;SDS011;8302;51.154;4.456;2024-01-30T05:00:06;2.92;;;2.00;;
16385;SDS011;8302;51.154;4.456;2024-01-30T05:02:34;2.45;;;1.88;;
16385;SDS011;8302;51.154;4.456;2024-01-30T05:05:01;3.38;;;1.52;;
16385;SDS011;8302;51.154;4.456;2024-01-30T05:07:30;4.32;;;1.90;;
16385;SDS011;8302;51.154;4.456;2024-01-30T05:09:57;1.30;;;1.00;;
16385;SDS011;8302;51.154;4.456;2024-01-30T05:12:30;1.67;;;1.02;;
16385;SDS011;8302;51.154;4.456;2024-01-30T05:14:58;2.45;;;1.55;;
16385;SDS011;8302;51.154;4.456;2024-01-30T05:17:26;3.35;;;1.45;;
16385;SDS011;8302;51.154;4.456;2024-01-30T05:19:54;6.05;;;1.42;;
16385;SDS011;8302;51.154;4.456;2024-01-30T05:22:22;2.55;;;1.60;;
16385;SDS011;8302;51.154;4.456;2024-01-30T05:24:49;1.83;;;1.20;;
16385;SDS011;8302;51.154;4.456;2024-01-30T05:27:17;1.60;;;1.33;;
16385;SDS011;8302;51.154;4.456;2024-01-30T05:29:46;2.08;;;1.33;;
16385;SDS011;8302;51.154;4.456;2024-01-30T05:32:14;2.08;;;1.52;;
16385;SDS011;8302;51.154;4.456;2024-01-30T05:34:42;1.83;;;1.50;;
16385;SDS011;8302;51.154;4.456;2024-01-30T05:37:10;1.67;;;1.35;;
16385;SDS011;8302;51.154;4.456;2024-01-30T05:39:41;3.53;;;2.00;;
16385;SDS011;8302;51.154;4.456;2024-01-30T05:42:08;3.08;;;1.73;;
16385;SDS011;8302;51.154;4.456;2024-01-30T05:44:36;1.63;;;1.45;;
16385;SDS011;8302;51.154;4.456;2024-01-30T05:47:05;2.47;;;1.60;;
16385;SDS011;8302;51.154;4.456;2024-01-30T05:49:33;2.67;;;1.33;;
16385;SDS011;8302;51.154;4.456;2024-01-30T05:52:01;2.72;;;1.40;;
16385;SDS011;8302;51.154;4.456;2024-01-30T05:54:29;3.60;;;1.65;;
16385;SDS011;8302;51.154;4.456;2024-01-30T05:56:57;2.78;;;1.40;;
16385;SDS011;8302;51.154;4.456;2024-01-30T05:59:25;2.67;;;1.40;;
16385;SDS011;8302;51.154;4.456;2024-01-30T06:01:52;2.80;;;1.63;;
16385;SDS011;8302;51.154;4.456;2024-01-30T06:04:22;2.25;;;1.42;;
16385;SDS011;8302;51.154;4.456;2024-01-30T06:06:50;4.82;;;1.25;;
16385;SDS011;8302;51.154;4.456;2024-01-30T06:09:18;2.53;;;1.63;;
16385;SDS011;8302;51.154;4.456;2024-01-30T06:11:45;4.15;;;1.85;;
16385;SDS011;8302;51.154;4.456;2024-01-30T06:14:13;2.45;;;1.42;;
16385;SDS011;8302;51.154;4.456;2024-01-30T06:16:41;3.55;;;1.60;;
16385;SDS011;8302;51.154;4.456;2024-01-30T06:19:08;1.95;;;1.55;;
16385;SDS011;8302;51.154;4.456;2024-01-30T06:21:38;2.65;;;1.92;;
16385;SDS011;8302;51.154;4.456;2024-01-30T06:24:05;2.95;;;2.00;;
16385;SDS011;8302;51.154;4.456;2024-01-30T06:26:33;4.72;;;1.70;;
16385;SDS011;8302;51.154;4.456;2024-01-30T06:29:01;3.30;;;2.10;;
16385;SDS011;8302;51.154;4.456;2024-01-30T06:31:29;3.30;;;1.73;;
16385;SDS011;8302;51.154;4.456;2024-01-30T06:33:57;3.58;;;2.22;;
16385;SDS011;8302;51.154;4.456;2024-01-30T06:36:25;4.15;;;2.20;;
16385;SDS011;8302;51.154;4.456;2024-01-30T06:38:54;3.10;;;1.85;;
16385;SDS011;8302;51.154;4.456;2024-01-30T06:41:22;5.18;;;1.92;;
16385;SDS011;8302;51.154;4.456;2024-01-30T06:43:50;3.55;;;1.52;;
16385;SDS011;8302;51.154;4.456;2024-01-30T06:46:17;4.38;;;1.95;;
16385;SDS011;8302;51.154;4.456;2024-01-30T06:48:45;3.20;;;2.08;;
16385;SDS011;8302;51.154;4.456;2024-01-30T06:51:13;6.93;;;2.60;;
16385;SDS011;8302;51.154;4.456;2024-01-30T06:53:43;4.10;;;2.05;;
16385;SDS011;8302;51.154;4.456;2024-01-30T06:56:12;2.97;;;1.73;;
16385;SDS011;8302;51.154;4.456;2024-01-30T06:58:40;2.10;;;1.27;;
16385;SDS011;8302;51.154;4.456;2024-01-30T07:01:08;2.35;;;1.75;;
16385;SDS011;8302;51.154;4.456;2024-01-30T07:03:36;3.20;;;1.67;;
16385;SDS011;8302;51.154;4.456;2024-01-30T07:06:04;2.92;;;1.90;;
16385;SDS011;8302;51.154;4.456;2024-01-30T07:08:32;4.53;;;2.22;;
16385;SDS011;8302;51.154;4.456;2024-01-30T07:11:00;2.25;;;1.88;;
16385;SDS011;8302;51.154;4.456;2024-01-30T07:13:29;5.45;;;2.80;;
16385;SDS011;8302;51.154;4.456;2024-01-30T07:15:57;5.13;;;2.30;;
16385;SDS011;8302;51.154;4.456;2024-01-30T07:18:25;3.20;;;2.40;;
16385;SDS011;8302;51.154;4.456;2024-01-30T07:20:52;4.95;;;2.28;;
16385;SDS011;8302;51.154;4.456;2024-01-30T07:23:20;6.05;;;2.45;;
16385;SDS011;8302;51.154;4.456;2024-01-30T07:25:48;5.40;;;2.40;;
16385;SDS011;8302;51.154;4.456;2024-01-30T07:28:17;8.70;;;3.05;;
16385;SDS011;8302;51.154;4.456;2024-01-30T07:30:46;3.33;;;2.08;;
16385;SDS011;8302;51.154;4.456;2024-01-30T07:33:14;4.63;;;1.85;;
16385;SDS011;8302;51.154;4.456;2024-01-30T07:35:42;5.00;;;2.58;;
16385;SDS011;8302;51.154;4.456;2024-01-30T07:38:10;3.30;;;1.67;;
16385;SDS011;8302;51.154;4.456;2024-01-30T07:40:38;3.67;;;2.17;;
16385;SDS011;8302;51.154;4.456;2024-01-30T07:43:06;1.92;;;1.60;;
16385;SDS011;8302;51.154;4.456;2024-01-30T07:45:34;6.10;;;2.33;;
16385;SDS011;8302;51.154;4.456;2024-01-30T07:48:05;3.53;;;2.28;;
16385;SDS011;8302;51.154;4.456;2024-01-30T07:50:33;3.10;;;2.17;;
16385;SDS011;8302;51.154;4.456;2024-01-30T07:53:01;3.75;;;2.17;;
16385;SDS011;8302;51.154;4.456;2024-01-30T07:55:29;5.70;;;1.88;;
16385;SDS011;8302;51.154;4.456;2024-01-30T07:57:59;4.85;;;2.30;;
16385;SDS011;8302;51.154;4.456;2024-01-30T08:00:27;1.80;;;1.55;;
16385;SDS011;8302;51.154;4.456;2024-01-30T08:02:55;4.35;;;1.95;;
16385;SDS011;8302;51.154;4.456;2024-01-30T08:05:25;4.38;;;2.13;;
16385;SDS011;8302;51.154;4.456;2024-01-30T08:07:53;2.83;;;1.42;;
16385;SDS011;8302;51.154;4.456;2024-01-30T08:10:21;3.08;;;1.65;;
16385;SDS011;8302;51.154;4.456;2024-01-30T08:12:48;3.40;;;2.00;;
16385;SDS011;8302;51.154;4.456;2024-01-30T08:15:16;4.45;;;2.08;;
16385;SDS011;8302;51.154;4.456;2024-01-30T08:17:44;3.45;;;2.17;;
16385;SDS011;8302;51.154;4.456;2024-01-30T08:20:12;2.78;;;2.03;;
16385;SDS011;8302;51.154;4.456;2024-01-30T08:22:41;4.25;;;2.17;;
16385;SDS011;8302;51.154;4.456;2024-01-30T08:25:09;2.10;;;1.65;;
16385;SDS011;8302;51.154;4.456;2024-01-30T08:27:37;2.95;;;1.95;;
16385;SDS011;8302;51.154;4.456;2024-01-30T08:30:06;2.97;;;1.67;;
16385;SDS011;8302;51.154;4.456;2024-01-30T08:32:34;4.65;;;1.83;;
16385;SDS011;8302;51.154;4.456;2024-01-30T08:35:02;3.50;;;2.05;;
16385;SDS011;8302;51.154;4.456;2024-01-30T08:37:31;3.90;;;2.30;;
16385;SDS011;8302;51.154;4.456;2024-01-30T08:40:00;3.45;;;1.70;;
16385;SDS011;8302;51.154;4.456;2024-01-30T08:42:29;3.83;;;2.50;;
16385;SDS011;8302;51.154;4.456;2024-01-30T08:44:56;5.57;;;2.35;;
16385;SDS011;8302;51.154;4.456;2024-01-30T08:47:24;3.67;;;2.08;;
16385;SDS011;8302;51.154;4.456;2024-01-30T08:49:52;3.53;;;2.00;;
16385;SDS011;8302;51.154;4.456;2024-01-30T08:52:20;6.75;;;2.10;;
16385;SDS011;8302;51.154;4.456;2024-01-30T08:54:48;2.97;;;2.15;;
16385;SDS011;8302;51.154;4.456;2024-01-30T08:57:17;5.28;;;2.03;;
16385;SDS011;8302;51.154;4.456;2024-01-30T08:59:44;2.90;;;2.00;;
16385;SDS011;8302;51.154;4.456;2024-01-30T09:02:12;2.70;;;1.52;;
16385;SDS011;8302;51.154;4.456;2024-01-30T09:04:42;3.83;;;2.45;;
16385;SDS011;8302;51.154;4.456;2024-01-30T09:07:10;3.10;;;2.00;;
16385;SDS011;8302;51.154;4.456;2024-01-30T09:09:40;3.38;;;1.92;;
16385;SDS011;8302;51.154;4.456;2024-01-30T09:12:08;5.07;;;2.15;;
16385;SDS011;8302;51.154;4.456;2024-01-30T09:14:39;2.55;;;1.95;;
16385;SDS011;8302;51.154;4.456;2024-01-30T09:17:07;2.50;;;2.17;;
16385;SDS011;8302;51.154;4.456;2024-01-30T09:19:35;2.35;;;2.00;;
16385;SDS011;8302;51.154;4.456;2024-01-30T09:22:03;7.68;;;2.10;;
16385;SDS011;8302;51.154;4.456;2024-01-30T09:24:31;2.78;;;1.55;;
16385;SDS011;8302;51.154;4.456;2024-01-30T09:26:59;2.80;;;1.95;;
16385;SDS011;8302;51.154;4.456;2024-01-30T09:29:27;4.93;;;2.33;;
16385;SDS011;8302;51.154;4.456;2024-01-30T09:31:56;3.10;;;1.55;;
16385;SDS011;8302;51.154;4.456;2024-01-30T09:34:24;2.58;;;1.90;;
16385;SDS011;8302;51.154;4.456;2024-01-30T09:36:52;3.15;;;1.95;;
16385;SDS011;8302;51.154;4.456;2024-01-30T09:39:20;6.47;;;1.92;;
16385;SDS011;8302;51.154;4.456;2024-01-30T09:41:48;4.57;;;1.80;;
16385;SDS011;8302;51.154;4.456;2024-01-30T09:44:16;5.88;;;2.35;;
16385;SDS011;8302;51.154;4.456;2024-01-30T09:46:44;4.30;;;1.90;;
16385;SDS011;8302;51.154;4.456;2024-01-30T09:49:15;4.70;;;1.80;;
16385;SDS011;8302;51.154;4.456;2024-01-30T09:51:46;2.83;;;1.27;;
16385;SDS011;8302;51.154;4.456;2024-01-30T09:54:15;4.55;;;1.83;;
16385;SDS011;8302;51.154;4.456;2024-01-30T09:56:43;4.47;;;1.85;;
16385;SDS011;8302;51.154;4.456;2024-01-30T09:59:11;3.38;;;1.90;;
16385;SDS011;8302;51.154;4.456;2024-01-30T10:01:38;2.97;;;2.35;;
16385;SDS011;8302;51.154;4.456;2024-01-30T10:04:07;2.83;;;2.05;;
16385;SDS011;8302;51.154;4.456;2024-01-30T10:06:37;4.18;;;2.10;;
16385;SDS011;8302;51.154;4.456;2024-01-30T10:09:04;2.38;;;1.73;;
16385;SDS011;8302;51.154;4.456;2024-01-30T10:11:32;1.83;;;1.48;;
16385;SDS011;8302;51.154;4.456;2024-01-30T10:14:00;3.95;;;1.80;;
16385;SDS011;8302;51.154;4.456;2024-01-30T10:16:28;3.72;;;1.77;;
16385;SDS011;8302;51.154;4.456;2024-01-30T10:18:56;2.08;;;1.80;;
16385;SDS011;8302;51.154;4.456;2024-01-30T10:21:24;3.25;;;2.10;;
16385;SDS011;8302;51.154;4.456;2024-01-30T10:23:53;3.78;;;1.95;;
16385;SDS011;8302;51.154;4.456;2024-01-30T10:26:21;3.33;;;1.52;;
16385;SDS011;8302;51.154;4.456;2024-01-30T10:28:49;3.20;;;2.00;;
16385;SDS011;8302;51.154;4.456;2024-01-30T10:31:17;4.28;;;1.70;;
16385;SDS011;8302;51.154;4.456;2024-01-30T10:33:45;2.75;;;1.80;;
16385;SDS011;8302;51.154;4.456;2024-01-30T10:36:13;7.70;;;2.42;;
16385;SDS011;8302;51.154;4.456;2024-01-30T10:38:46;6.72;;;2.33;;
16385;SDS011;8302;51.154;4.456;2024-01-30T10:41:19;2.63;;;1.70;;
16385;SDS011;8302;51.154;4.456;2024-01-30T10:43:50;3.85;;;2.20;;
16385;SDS011;8302;51.154;4.456;2024-01-30T10:46:21;4.18;;;1.85;;
16385;SDS011;8302;51.154;4.456;2024-01-30T10:48:55;4.00;;;1.92;;
16385;SDS011;8302;51.154;4.456;2024-01-30T10:51:25;2.63;;;1.90;;
16385;SDS011;8302;51.154;4.456;2024-01-30T10:53:54;4.13;;;2.00;;
16385;SDS011;8302;51.154;4.456;2024-01-30T10:56:25;4.55;;;2.33;;
16385;SDS011;8302;51.154;4.456;2024-01-30T10:58:53;3.22;;;2.42;;
16385;SDS011;8302;51.154;4.456;2024-01-30T11:01:22;2.90;;;2.13;;
16385;SDS011;8302;51.154;4.456;2024-01-30T11:03:50;1.20;;;1.10;;
16385;SDS011;8302;51.154;4.456;2024-01-30T11:06:18;2.38;;;1.70;;
16385;SDS011;8302;51.154;4.456;2024-01-30T11:08:59;4.82;;;1.60;;
16385;SDS011;8302;51.154;4.456;2024-01-30T11:11:29;1.92;;;1.73;;
16385;SDS011;8302;51.154;4.456;2024-01-30T11:14:00;3.28;;;1.55;;
16385;SDS011;8302;51.154;4.456;2024-01-30T11:16:30;3.20;;;1.58;;
16385;SDS011;8302;51.154;4.456;2024-01-30T11:19:00;3.78;;;2.15;;
16385;SDS011;8302;51.154;4.456;2024-01-30T11:21:28;2.45;;;1.60;;
16385;SDS011;8302;51.154;4.456;2024-01-30T11:23:55;1.60;;;1.23;;
16385;SDS011;8302;51.154;4.456;2024-01-30T11:26:28;3.05;;;2.05;;
16385;SDS011;8302;51.154;4.456;2024-01-30T11:28:59;4.85;;;1.85;;
16385;SDS011;8302;51.154;4.456;2024-01-30T11:31:30;3.05;;;1.70;;
16385;SDS011;8302;51.154;4.456;2024-01-30T11:33:59;2.63;;;1.40;;
16385;SDS011;8302;51.154;4.456;2024-01-30T11:36:27;2.53;;;1.58;;
16385;SDS011;8302;51.154;4.456;2024-01-30T11:38:55;2.03;;;1.30;;
16385;SDS011;8302;51.154;4.456;2024-01-30T11:41:23;2.28;;;1.25;;
16385;SDS011;8302;51.154;4.456;2024-01-30T11:43:53;2.28;;;1.30;;
16385;SDS011;8302;51.154;4.456;2024-01-30T11:46:21;1.30;;;1.20;;
16385;SDS011;8302;51.154;4.456;2024-01-30T11:48:49;3.58;;;1.40;;
16385;SDS011;8302;51.154;4.456;2024-01-30T11:51:17;2.17;;;1.30;;
16385;SDS011;8302;51.154;4.456;2024-01-30T11:53:49;3.10;;;1.38;;
16385;SDS011;8302;51.154;4.456;2024-01-30T11:56:17;3.60;;;1.35;;
16385;SDS011;8302;51.154;4.456;2024-01-30T11:58:44;2.67;;;1.05;;
16385;SDS011;8302;51.154;4.456;2024-01-30T12:01:13;2.65;;;1.25;;
16385;SDS011;8302;51.154;4.456;2024-01-30T12:03:41;3.30;;;1.50;;
16385;SDS011;8302;51.154;4.456;2024-01-30T12:06:09;1.92;;;1.00;;
16385;SDS011;8302;51.154;4.456;2024-01-30T12:08:37;2.25;;;1.00;;
16385;SDS011;8302;51.154;4.456;2024-01-30T12:11:06;1.13;;;0.80;;
16385;SDS011;8302;51.154;4.456;2024-01-30T12:13:33;4.35;;;1.23;;
16385;SDS011;8302;51.154;4.456;2024-01-30T12:16:02;1.02;;;0.93;;
16385;SDS011;8302;51.154;4.456;2024-01-30T12:18:31;1.15;;;0.80;;
16385;SDS011;8302;51.154;4.456;2024-01-30T12:20:59;1.00;;;0.93;;
16385;SDS011;8302;51.154;4.456;2024-01-30T12:23:27;1.75;;;1.20;;
16385;SDS011;8302;51.154;4.456;2024-01-30T12:25:56;1.55;;;1.00;;
16385;SDS011;8302;51.154;4.456;2024-01-30T12:28:23;1.13;;;0.85;;
16385;SDS011;8302;51.154;4.456;2024-01-30T12:30:54;1.10;;;1.00;;
16385;SDS011;8302;51.154;4.456;2024-01-30T12:33:22;4.40;;;1.05;;
16385;SDS011;8302;51.154;4.456;2024-01-30T12:35:51;1.33;;;0.82;;
16385;SDS011;8302;51.154;4.456;2024-01-30T12:38:28;0.80;;;0.75;;
16385;SDS011;8302;51.154;4.456;2024-01-30T12:40:56;1.50;;;0.90;;
16385;SDS011;8302;51.154;4.456;2024-01-30T12:43:24;1.52;;;1.00;;
16385;SDS011;8302;51.154;4.456;2024-01-30T12:46:04;1.88;;;0.90;;
16385;SDS011;8302;51.154;4.456;2024-01-30T12:48:32;0.85;;;0.77;;
16385;SDS011;8302;51.154;4.456;2024-01-30T12:51:01;1.38;;;0.88;;
16385;SDS011;8302;51.154;4.456;2024-01-30T12:53:29;2.35;;;0.90;;
16385;SDS011;8302;51.154;4.456;2024-01-30T12:55:57;0.93;;;0.85;;
16385;SDS011;8302;51.154;4.456;2024-01-30T12:58:25;0.90;;;0.65;;
16385;SDS011;8302;51.154;4.456;2024-01-30T13:00:52;0.60;;;0.60;;
16385;SDS011;8302;51.154;4.456;2024-01-30T13:03:21;1.35;;;0.93;;
16385;SDS011;8302;51.154;4.456;2024-01-30T13:05:49;0.63;;;0.50;;
16385;SDS011;8302;51.154;4.456;2024-01-30T13:08:18;1.35;;;1.00;;
16385;SDS011;8302;51.154;4.456;2024-01-30T13:10:46;0.93;;;0.70;;
16385;SDS011;8302;51.154;4.456;2024-01-30T13:13:16;2.38;;;0.90;;
16385;SDS011;8302;51.154;4.456;2024-01-30T13:15:46;1.02;;;0.80;;
16385;SDS011;8302;51.154;4.456;2024-01-30T13:18:14;0.30;;;0.30;;
16385;SDS011;8302;51.154;4.456;2024-01-30T13:20:42;0.60;;;0.60;;
16385;SDS011;8302;51.154;4.456;2024-01-30T13:23:10;2.63;;;1.05;;
16385;SDS011;8302;51.154;4.456;2024-01-30T13:25:39;0.90;;;0.80;;
16385;SDS011;8302;51.154;4.456;2024-01-30T13:28:07;1.40;;;0.80;;
16385;SDS011;8302;51.154;4.456;2024-01-30T13:30:35;1.70;;;0.93;;
16385;SDS011;8302;51.154;4.456;2024-01-30T13:33:03;2.47;;;0.93;;
16385;SDS011;8302;51.154;4.456;2024-01-30T13:35:31;0.90;;;0.70;;
16385;SDS011;8302;51.154;4.456;2024-01-30T13:37:59;0.65;;;0.55;;
16385;SDS011;8302;51.154;4.456;2024-01-30T13:40:26;1.35;;;0.82;;
16385;SDS011;8302;51.154;4.456;2024-01-30T13:42:55;1.55;;;0.90;;
16385;SDS011;8302;51.154;4.456;2024-01-30T13:45:24;1.98;;;0.50;;
16385;SDS011;8302;51.154;4.456;2024-01-30T13:47:52;0.60;;;0.60;;
16385;SDS011;8302;51.154;4.456;2024-01-30T13:50:20;2.53;;;1.13;;
16385;SDS011;8302;51.154;4.456;2024-01-30T13:52:48;0.55;;;0.50;;
16385;SDS011;8302;51.154;4.456;2024-01-30T13:55:16;1.08;;;0.73;;
16385;SDS011;8302;51.154;4.456;2024-01-30T13:57:44;0.75;;;0.75;;
16385;SDS011;8302;51.154;4.456;2024-01-30T14:00:16;1.25;;;0.70;;
16385;SDS011;8302;51.154;4.456;2024-01-30T14:02:44;2.83;;;0.65;;
16385;SDS011;8302;51.154;4.456;2024-01-30T14:05:12;0.73;;;0.73;;
16385;SDS011;8302;51.154;4.456;2024-01-30T14:07:41;1.95;;;0.82;;
16385;SDS011;8302;51.154;4.456;2024-01-30T14:10:10;0.50;;;0.50;;
16385;SDS011;8302;51.154;4.456;2024-01-30T14:12:41;0.88;;;0.45;;
16385;SDS011;8302;51.154;4.456;2024-01-30T14:15:09;0.70;;;0.70;;
16385;SDS011;8302;51.154;4.456;2024-01-30T14:17:54;0.80;;;0.40;;
16385;SDS011;8302;51.154;4.456;2024-01-30T14:20:22;1.35;;;0.50;;
16385;SDS011;8302;51.154;4.456;2024-01-30T14:22:50;0.65;;;0.50;;
16385;SDS011;8302;51.154;4.456;2024-01-30T14:25:19;0.45;;;0.45;;
16385;SDS011;8302;51.154;4.456;2024-01-30T14:27:47;0.63;;;0.52;;
16385;SDS011;8302;51.154;4.456;2024-01-30T14:30:15;1.50;;;0.57;;
16385;SDS011;8302;51.154;4.456;2024-01-30T14:32:43;0.63;;;0.63;;
16385;SDS011;8302;51.154;4.456;2024-01-30T14:35:13;3.72;;;0.82;;
16385;SDS011;8302;51.154;4.456;2024-01-30T14:37:41;1.90;;;0.57;;
16385;SDS011;8302;51.154;4.456;2024-01-30T14:40:08;0.52;;;0.50;;
16385;SDS011;8302;51.154;4.456;2024-01-30T14:42:36;1.38;;;0.65;;
16385;SDS011;8302;51.154;4.456;2024-01-30T14:45:05;0.20;;;0.20;;
16385;SDS011;8302;51.154;4.456;2024-01-30T14:47:33;0.82;;;0.52;;
16385;SDS011;8302;51.154;4.456;2024-01-30T14:50:02;0.55;;;0.50;;
16385;SDS011;8302;51.154;4.456;2024-01-30T14:52:34;0.63;;;0.50;;
16385;SDS011;8302;51.154;4.456;2024-01-30T14:55:02;0.50;;;0.50;;
16385;SDS011;8302;51.154;4.456;2024-01-30T14:57:30;4.32;;;0.80;;
16385;SDS011;8302;51.154;4.456;2024-01-30T14:59:58;0.30;;;0.30;;
16385;SDS011;8302;51.154;4.456;2024-01-30T15:02:25;0.52;;;0.52;;
16385;SDS011;8302;51.154;4.456;2024-01-30T15:04:53;1.55;;;0.63;;
16385;SDS011;8302;51.154;4.456;2024-01-30T15:07:21;0.63;;;0.57;;
16385;SDS011;8302;51.154;4.456;2024-01-30T15:10:03;0.40;;;0.30;;